sensor_id;sensor_type;location;lat;lon;timestamp;P1;durP1;ratioP1;P2;durP2;ratioP2
19727;SDS011;10015;52.530;13.390;2023-05-10T00:00:27;9.17;;;4.57;;
19727;SDS011;10015;52.530;13.390;2023-05-10T00:02:53;5.87;;;4.47;;
19727;SDS011;10015;52.530;13.390;2023-05-10T00:05:19;8.07;;;4.37;;
19727;SDS011;10015;52.530;13.390;2023-05-10T00:07:45;7.07;;;4.70;;
19727;SDS011;10015;52.530;13.390;2023-05-10T00:10:11;7.30;;;4.43;;
19727;SDS011;10015;52.530;13.390;2023-05-10T00:12:37;5.97;;;4.23;;
19727;SDS011;10015;52.530;13.390;2023-05-10T00:15:03;6.87;;;4.53;;
19727;SDS011;10015;52.530;13.390;2023-05-10T00:17:29;6.50;;;4.17;;
19727;SDS011;10015;52.530;13.390;2023-05-10T00:19:55;7.43;;;5.03;;
19727;SDS011;10015;52.530;13.390;2023-05-10T00:22:21;7.17;;;4.73;;
19727;SDS011;10015;52.530;13.390;2023-05-10T00:24:47;7.03;;;4.40;;
19727;SDS011;10015;52.530;13.390;2023-05-10T00:27:13;8.00;;;5.37;;
19727;SDS011;10015;52.530;13.390;2023-05-10T00:29:38;6.83;;;4.47;;
19727;SDS011;10015;52.530;13.390;2023-05-10T00:32:04;6.10;;;4.60;;
19727;SDS011;10015;52.530;13.390;2023-05-10T00:34:31;6.93;;;4.63;;
19727;SDS011;10015;52.530;13.390;2023-05-10T00:36:57;8.70;;;5.13;;
19727;SDS011;10015;52.530;13.390;2023-05-10T00:39:23;8.17;;;4.70;;
19727;SDS011;10015;52.530;13.390;2023-05-10T00:41:49;6.57;;;4.67;;
19727;SDS011;10015;52.530;13.390;2023-05-10T00:44:16;9.93;;;5.43;;
19727;SDS011;10015;52.530;13.390;2023-05-10T00:46:43;7.07;;;4.60;;
19727;SDS011;10015;52.530;13.390;2023-05-10T00:49:10;8.87;;;5.00;;
19727;SDS011;10015;52.530;13.390;2023-05-10T00:51:36;10.00;;;5.10;;
19727;SDS011;10015;52.530;13.390;2023-05-10T00:54:02;8.70;;;4.90;;
19727;SDS011;10015;52.530;13.390;2023-05-10T00:56:28;8.67;;;5.00;;
19727;SDS011;10015;52.530;13.390;2023-05-10T00:58:55;6.57;;;4.70;;
19727;SDS011;10015;52.530;13.390;2023-05-10T01:01:21;7.93;;;4.83;;
19727;SDS011;10015;52.530;13.390;2023-05-10T01:03:48;10.80;;;4.50;;
19727;SDS011;10015;52.530;13.390;2023-05-10T01:06:14;8.67;;;4.90;;
19727;SDS011;10015;52.530;13.390;2023-05-10T01:08:40;8.30;;;5.27;;
19727;SDS011;10015;52.530;13.390;2023-05-10T01:11:06;8.43;;;5.00;;
19727;SDS011;10015;52.530;13.390;2023-05-10T01:13:35;9.07;;;5.23;;
19727;SDS011;10015;52.530;13.390;2023-05-10T01:16:03;8.10;;;5.70;;
19727;SDS011;10015;52.530;13.390;2023-05-10T01:18:34;7.70;;;4.73;;
19727;SDS011;10015;52.530;13.390;2023-05-10T01:21:11;10.00;;;5.00;;
19727;SDS011;10015;52.530;13.390;2023-05-10T01:32:29;8.97;;;5.40;;
19727;SDS011;10015;52.530;13.390;2023-05-10T01:35:18;6.53;;;4.40;;
19727;SDS011;10015;52.530;13.390;2023-05-10T01:37:59;7.87;;;4.90;;
19727;SDS011;10015;52.530;13.390;2023-05-10T01:40:35;7.43;;;4.93;;
19727;SDS011;10015;52.530;13.390;2023-05-10T01:43:19;6.67;;;4.93;;
19727;SDS011;10015;52.530;13.390;2023-05-10T01:45:59;7.03;;;4.63;;
19727;SDS011;10015;52.530;13.390;2023-05-10T01:48:30;7.77;;;4.57;;
19727;SDS011;10015;52.530;13.390;2023-05-10T01:50:59;6.60;;;4.83;;
19727;SDS011;10015;52.530;13.390;2023-05-10T01:53:25;7.17;;;4.43;;
19727;SDS011;10015;52.530;13.390;2023-05-10T01:55:53;8.43;;;5.57;;
19727;SDS011;10015;52.530;13.390;2023-05-10T01:58:27;9.50;;;4.50;;
19727;SDS011;10015;52.530;13.390;2023-05-10T02:00:57;6.47;;;4.50;;
19727;SDS011;10015;52.530;13.390;2023-05-10T02:03:25;7.33;;;4.30;;
19727;SDS011;10015;52.530;13.390;2023-05-10T02:05:53;7.87;;;4.90;;
19727;SDS011;10015;52.530;13.390;2023-05-10T02:08:21;8.90;;;4.70;;
19727;SDS011;10015;52.530;13.390;2023-05-10T02:10:49;8.67;;;5.03;;
19727;SDS011;10015;52.530;13.390;2023-05-10T02:13:17;7.33;;;4.37;;
19727;SDS011;10015;52.530;13.390;2023-05-10T02:15:46;7.00;;;4.60;;
19727;SDS011;10015;52.530;13.390;2023-05-10T02:18:14;6.17;;;4.70;;
19727;SDS011;10015;52.530;13.390;2023-05-10T02:20:41;9.67;;;5.00;;
19727;SDS011;10015;52.530;13.390;2023-05-10T02:23:09;7.03;;;4.57;;
19727;SDS011;10015;52.530;13.390;2023-05-10T02:25:36;8.47;;;5.10;;
19727;SDS011;10015;52.530;13.390;2023-05-10T02:28:04;6.87;;;5.17;;
19727;SDS011;10015;52.530;13.390;2023-05-10T02:30:32;5.57;;;4.17;;
19727;SDS011;10015;52.530;13.390;2023-05-10T02:33:00;6.67;;;4.80;;
19727;SDS011;10015;52.530;13.390;2023-05-10T02:35:28;7.87;;;4.63;;
19727;SDS011;10015;52.530;13.390;2023-05-10T02:37:55;6.27;;;4.60;;
19727;SDS011;10015;52.530;13.390;2023-05-10T02:40:23;8.90;;;5.10;;
19727;SDS011;10015;52.530;13.390;2023-05-10T02:42:50;7.27;;;4.73;;
19727;SDS011;10015;52.530;13.390;2023-05-10T02:45:20;7.63;;;4.63;;
19727;SDS011;10015;52.530;13.390;2023-05-10T02:47:50;6.87;;;4.60;;
19727;SDS011;10015;52.530;13.390;2023-05-10T02:50:15;6.53;;;4.50;;
19727;SDS011;10015;52.530;13.390;2023-05-10T02:52:49;5.90;;;4.60;;
19727;SDS011;10015;52.530;13.390;2023-05-10T02:55:21;8.80;;;5.23;;
19727;SDS011;10015;52.530;13.390;2023-05-10T02:57:57;6.00;;;4.63;;
19727;SDS011;10015;52.530;13.390;2023-05-10T03:00:25;6.20;;;4.57;;
19727;SDS011;10015;52.530;13.390;2023-05-10T03:02:52;6.50;;;4.77;;
19727;SDS011;10015;52.530;13.390;2023-05-10T03:05:19;6.87;;;4.40;;
19727;SDS011;10015;52.530;13.390;2023-05-10T03:07:45;8.37;;;4.37;;
19727;SDS011;10015;52.530;13.390;2023-05-10T03:10:12;8.43;;;4.50;;
19727;SDS011;10015;52.530;13.390;2023-05-10T03:18:29;8.13;;;5.10;;
19727;SDS011;10015;52.530;13.390;2023-05-10T03:21:05;8.20;;;4.50;;
19727;SDS011;10015;52.530;13.390;2023-05-10T03:23:44;6.00;;;4.00;;
19727;SDS011;10015;52.530;13.390;2023-05-10T03:26:17;7.07;;;4.47;;
19727;SDS011;10015;52.530;13.390;2023-05-10T03:29:03;6.80;;;4.43;;
19727;SDS011;10015;52.530;13.390;2023-05-10T03:31:31;6.90;;;4.30;;
19727;SDS011;10015;52.530;13.390;2023-05-10T03:33:58;7.53;;;4.37;;
19727;SDS011;10015;52.530;13.390;2023-05-10T03:36:25;6.60;;;4.27;;
19727;SDS011;10015;52.530;13.390;2023-05-10T03:38:52;7.37;;;4.13;;
19727;SDS011;10015;52.530;13.390;2023-05-10T03:41:18;8.13;;;4.70;;
19727;SDS011;10015;52.530;13.390;2023-05-10T03:43:46;7.20;;;4.17;;
19727;SDS011;10015;52.530;13.390;2023-05-10T03:46:12;5.90;;;4.00;;
19727;SDS011;10015;52.530;13.390;2023-05-10T03:48:38;6.50;;;4.63;;
19727;SDS011;10015;52.530;13.390;2023-05-10T03:51:04;7.77;;;4.13;;
19727;SDS011;10015;52.530;13.390;2023-05-10T03:53:30;6.57;;;4.23;;
19727;SDS011;10015;52.530;13.390;2023-05-10T03:55:56;7.53;;;4.27;;
19727;SDS011;10015;52.530;13.390;2023-05-10T03:58:22;7.63;;;4.37;;
19727;SDS011;10015;52.530;13.390;2023-05-10T04:00:48;7.47;;;4.20;;
19727;SDS011;10015;52.530;13.390;2023-05-10T04:03:14;7.67;;;4.03;;
19727;SDS011;10015;52.530;13.390;2023-05-10T04:05:40;6.13;;;4.33;;
19727;SDS011;10015;52.530;13.390;2023-05-10T04:08:06;7.37;;;4.27;;
19727;SDS011;10015;52.530;13.390;2023-05-10T04:10:32;7.77;;;4.60;;
19727;SDS011;10015;52.530;13.390;2023-05-10T04:12:58;7.20;;;4.13;;
19727;SDS011;10015;52.530;13.390;2023-05-10T04:15:24;8.47;;;4.37;;
19727;SDS011;10015;52.530;13.390;2023-05-10T04:17:50;6.07;;;4.03;;
19727;SDS011;10015;52.530;13.390;2023-05-10T04:20:16;6.50;;;4.23;;
19727;SDS011;10015;52.530;13.390;2023-05-10T04:22:42;7.37;;;4.27;;
19727;SDS011;10015;52.530;13.390;2023-05-10T04:25:08;6.20;;;4.10;;
19727;SDS011;10015;52.530;13.390;2023-05-10T04:27:34;7.27;;;3.93;;
19727;SDS011;10015;52.530;13.390;2023-05-10T04:30:00;6.83;;;4.60;;
19727;SDS011;10015;52.530;13.390;2023-05-10T04:32:26;6.90;;;4.47;;
19727;SDS011;10015;52.530;13.390;2023-05-10T04:34:52;7.67;;;4.23;;
19727;SDS011;10015;52.530;13.390;2023-05-10T04:37:18;7.87;;;3.93;;
19727;SDS011;10015;52.530;13.390;2023-05-10T04:39:45;8.77;;;4.03;;
19727;SDS011;10015;52.530;13.390;2023-05-10T04:42:10;8.87;;;4.27;;
19727;SDS011;10015;52.530;13.390;2023-05-10T04:44:37;9.43;;;3.70;;
19727;SDS011;10015;52.530;13.390;2023-05-10T04:47:02;7.73;;;4.13;;
19727;SDS011;10015;52.530;13.390;2023-05-10T04:49:29;8.23;;;3.97;;
19727;SDS011;10015;52.530;13.390;2023-05-10T04:51:55;7.60;;;3.93;;
19727;SDS011;10015;52.530;13.390;2023-05-10T04:54:21;8.37;;;3.80;;
19727;SDS011;10015;52.530;13.390;2023-05-10T04:56:47;7.97;;;3.73;;
19727;SDS011;10015;52.530;13.390;2023-05-10T04:59:13;6.10;;;3.77;;
19727;SDS011;10015;52.530;13.390;2023-05-10T05:01:39;5.60;;;3.77;;
19727;SDS011;10015;52.530;13.390;2023-05-10T05:04:05;8.67;;;3.90;;
19727;SDS011;10015;52.530;13.390;2023-05-10T05:06:32;6.13;;;3.90;;
19727;SDS011;10015;52.530;13.390;2023-05-10T05:08:57;5.87;;;3.50;;
19727;SDS011;10015;52.530;13.390;2023-05-10T05:11:23;11.30;;;3.90;;
19727;SDS011;10015;52.530;13.390;2023-05-10T05:13:50;6.40;;;3.47;;
19727;SDS011;10015;52.530;13.390;2023-05-10T05:16:16;8.20;;;3.90;;
19727;SDS011;10015;52.530;13.390;2023-05-10T05:18:42;5.77;;;3.30;;
19727;SDS011;10015;52.530;13.390;2023-05-10T05:21:15;5.20;;;3.20;;
19727;SDS011;10015;52.530;13.390;2023-05-10T05:23:42;5.10;;;3.50;;
19727;SDS011;10015;52.530;13.390;2023-05-10T05:26:08;6.70;;;3.77;;
19727;SDS011;10015;52.530;13.390;2023-05-10T05:28:34;8.70;;;3.40;;
19727;SDS011;10015;52.530;13.390;2023-05-10T05:31:03;9.40;;;4.03;;
19727;SDS011;10015;52.530;13.390;2023-05-10T05:33:30;6.33;;;3.50;;
19727;SDS011;10015;52.530;13.390;2023-05-10T05:35:56;5.63;;;3.30;;
19727;SDS011;10015;52.530;13.390;2023-05-10T05:38:22;7.43;;;3.43;;
19727;SDS011;10015;52.530;13.390;2023-05-10T05:40:48;4.43;;;3.20;;
19727;SDS011;10015;52.530;13.390;2023-05-10T05:43:15;7.17;;;3.33;;
19727;SDS011;10015;52.530;13.390;2023-05-10T05:45:41;6.47;;;3.70;;
19727;SDS011;10015;52.530;13.390;2023-05-10T05:48:06;5.43;;;3.13;;
19727;SDS011;10015;52.530;13.390;2023-05-10T05:50:32;4.87;;;3.20;;
19727;SDS011;10015;52.530;13.390;2023-05-10T05:52:58;5.27;;;3.20;;
19727;SDS011;10015;52.530;13.390;2023-05-10T05:55:24;5.70;;;2.97;;
19727;SDS011;10015;52.530;13.390;2023-05-10T05:57:51;4.93;;;2.70;;
19727;SDS011;10015;52.530;13.390;2023-05-10T06:00:17;4.77;;;2.83;;
19727;SDS011;10015;52.530;13.390;2023-05-10T06:02:46;6.77;;;3.40;;
19727;SDS011;10015;52.530;13.390;2023-05-10T06:05:13;4.83;;;3.03;;
19727;SDS011;10015;52.530;13.390;2023-05-10T06:07:39;4.17;;;2.90;;
19727;SDS011;10015;52.530;13.390;2023-05-10T06:10:07;7.83;;;3.20;;
19727;SDS011;10015;52.530;13.390;2023-05-10T06:12:34;4.87;;;2.70;;
19727;SDS011;10015;52.530;13.390;2023-05-10T06:15:00;6.73;;;2.87;;
19727;SDS011;10015;52.530;13.390;2023-05-10T06:17:26;6.10;;;2.83;;
19727;SDS011;10015;52.530;13.390;2023-05-10T06:19:52;6.43;;;2.73;;
19727;SDS011;10015;52.530;13.390;2023-05-10T06:22:18;3.57;;;2.47;;
19727;SDS011;10015;52.530;13.390;2023-05-10T06:24:44;5.17;;;2.70;;
19727;SDS011;10015;52.530;13.390;2023-05-10T06:27:10;4.90;;;2.50;;
19727;SDS011;10015;52.530;13.390;2023-05-10T06:29:37;6.00;;;3.10;;
19727;SDS011;10015;52.530;13.390;2023-05-10T06:32:03;3.60;;;2.77;;
19727;SDS011;10015;52.530;13.390;2023-05-10T06:34:29;4.87;;;2.90;;
19727;SDS011;10015;52.530;13.390;2023-05-10T06:36:54;4.93;;;2.70;;
19727;SDS011;10015;52.530;13.390;2023-05-10T06:39:20;3.13;;;2.40;;
19727;SDS011;10015;52.530;13.390;2023-05-10T06:41:46;5.37;;;2.47;;
19727;SDS011;10015;52.530;13.390;2023-05-10T06:44:12;4.93;;;2.33;;
19727;SDS011;10015;52.530;13.390;2023-05-10T06:46:38;5.50;;;2.87;;
19727;SDS011;10015;52.530;13.390;2023-05-10T06:49:04;5.43;;;2.30;;
19727;SDS011;10015;52.530;13.390;2023-05-10T06:51:30;9.00;;;3.00;;
19727;SDS011;10015;52.530;13.390;2023-05-10T06:53:56;4.20;;;2.43;;
19727;SDS011;10015;52.530;13.390;2023-05-10T06:56:24;6.20;;;2.70;;
19727;SDS011;10015;52.530;13.390;2023-05-10T06:58:51;3.63;;;2.60;;
19727;SDS011;10015;52.530;13.390;2023-05-10T07:01:17;4.83;;;2.37;;
19727;SDS011;10015;52.530;13.390;2023-05-10T07:03:43;8.27;;;2.90;;
19727;SDS011;10015;52.530;13.390;2023-05-10T07:06:08;4.73;;;2.37;;
19727;SDS011;10015;52.530;13.390;2023-05-10T07:08:34;6.57;;;2.60;;
19727;SDS011;10015;52.530;13.390;2023-05-10T07:11:04;9.20;;;2.80;;
19727;SDS011;10015;52.530;13.390;2023-05-10T07:13:32;4.70;;;2.63;;
19727;SDS011;10015;52.530;13.390;2023-05-10T07:15:59;4.67;;;2.60;;
19727;SDS011;10015;52.530;13.390;2023-05-10T07:18:27;5.63;;;2.50;;
19727;SDS011;10015;52.530;13.390;2023-05-10T07:20:54;6.80;;;2.53;;
19727;SDS011;10015;52.530;13.390;2023-05-10T07:23:20;5.60;;;2.47;;
19727;SDS011;10015;52.530;13.390;2023-05-10T07:25:46;4.47;;;2.43;;
19727;SDS011;10015;52.530;13.390;2023-05-10T07:28:13;6.03;;;2.40;;
19727;SDS011;10015;52.530;13.390;2023-05-10T07:30:40;4.13;;;2.50;;
19727;SDS011;10015;52.530;13.390;2023-05-10T07:33:06;3.47;;;2.60;;
19727;SDS011;10015;52.530;13.390;2023-05-10T07:35:34;3.63;;;2.40;;
19727;SDS011;10015;52.530;13.390;2023-05-10T07:38:00;10.23;;;2.40;;
19727;SDS011;10015;52.530;13.390;2023-05-10T07:40:27;4.53;;;2.60;;
19727;SDS011;10015;52.530;13.390;2023-05-10T07:42:53;3.30;;;2.47;;
19727;SDS011;10015;52.530;13.390;2023-05-10T07:45:19;6.17;;;2.60;;
19727;SDS011;10015;52.530;13.390;2023-05-10T07:47:45;4.33;;;2.20;;
19727;SDS011;10015;52.530;13.390;2023-05-10T07:50:11;6.67;;;2.50;;
19727;SDS011;10015;52.530;13.390;2023-05-10T07:52:37;2.90;;;2.27;;
19727;SDS011;10015;52.530;13.390;2023-05-10T07:55:03;3.00;;;1.97;;
19727;SDS011;10015;52.530;13.390;2023-05-10T07:57:30;5.80;;;2.40;;
19727;SDS011;10015;52.530;13.390;2023-05-10T07:59:56;4.53;;;2.40;;
19727;SDS011;10015;52.530;13.390;2023-05-10T08:02:22;3.53;;;2.10;;
19727;SDS011;10015;52.530;13.390;2023-05-10T08:04:48;5.40;;;2.77;;
19727;SDS011;10015;52.530;13.390;2023-05-10T08:07:14;3.90;;;2.33;;
19727;SDS011;10015;52.530;13.390;2023-05-10T08:09:40;3.80;;;2.30;;
19727;SDS011;10015;52.530;13.390;2023-05-10T08:12:06;4.77;;;2.30;;
19727;SDS011;10015;52.530;13.390;2023-05-10T08:14:32;4.87;;;2.40;;
19727;SDS011;10015;52.530;13.390;2023-05-10T08:16:58;5.10;;;2.37;;
19727;SDS011;10015;52.530;13.390;2023-05-10T08:19:23;2.83;;;2.20;;
19727;SDS011;10015;52.530;13.390;2023-05-10T08:21:50;3.47;;;2.40;;
19727;SDS011;10015;52.530;13.390;2023-05-10T08:24:16;4.03;;;2.47;;
19727;SDS011;10015;52.530;13.390;2023-05-10T08:26:42;4.93;;;2.77;;
19727;SDS011;10015;52.530;13.390;2023-05-10T08:29:08;3.70;;;2.47;;
19727;SDS011;10015;52.530;13.390;2023-05-10T08:31:34;4.20;;;2.60;;
19727;SDS011;10015;52.530;13.390;2023-05-10T08:34:00;3.17;;;2.27;;
19727;SDS011;10015;52.530;13.390;2023-05-10T08:36:26;6.20;;;2.40;;
19727;SDS011;10015;52.530;13.390;2023-05-10T08:38:53;5.30;;;2.60;;
19727;SDS011;10015;52.530;13.390;2023-05-10T08:41:20;5.33;;;2.30;;
19727;SDS011;10015;52.530;13.390;2023-05-10T08:43:46;6.20;;;2.63;;
19727;SDS011;10015;52.530;13.390;2023-05-10T08:46:16;7.10;;;2.67;;
19727;SDS011;10015;52.530;13.390;2023-05-10T08:48:44;2.70;;;2.40;;
19727;SDS011;10015;52.530;13.390;2023-05-10T08:51:17;8.37;;;2.67;;
19727;SDS011;10015;52.530;13.390;2023-05-10T08:53:45;5.73;;;2.70;;
19727;SDS011;10015;52.530;13.390;2023-05-10T08:56:11;5.07;;;2.80;;
19727;SDS011;10015;52.530;13.390;2023-05-10T08:58:37;3.40;;;2.47;;
19727;SDS011;10015;52.530;13.390;2023-05-10T09:01:04;5.43;;;2.30;;
19727;SDS011;10015;52.530;13.390;2023-05-10T09:03:31;4.27;;;2.47;;
19727;SDS011;10015;52.530;13.390;2023-05-10T09:05:57;2.90;;;2.23;;
19727;SDS011;10015;52.530;13.390;2023-05-10T09:08:24;4.97;;;2.50;;
19727;SDS011;10015;52.530;13.390;2023-05-10T09:10:51;4.03;;;2.60;;
19727;SDS011;10015;52.530;13.390;2023-05-10T09:13:17;4.07;;;2.30;;
19727;SDS011;10015;52.530;13.390;2023-05-10T09:15:44;7.93;;;2.37;;
19727;SDS011;10015;52.530;13.390;2023-05-10T09:18:11;4.00;;;2.50;;
19727;SDS011;10015;52.530;13.390;2023-05-10T09:20:37;4.07;;;2.60;;
19727;SDS011;10015;52.530;13.390;2023-05-10T09:23:03;5.90;;;2.60;;
19727;SDS011;10015;52.530;13.390;2023-05-10T09:25:30;7.47;;;2.43;;
19727;SDS011;10015;52.530;13.390;2023-05-10T09:27:58;4.47;;;2.43;;
19727;SDS011;10015;52.530;13.390;2023-05-10T09:30:28;6.18;;;2.40;;
19727;SDS011;10015;52.530;13.390;2023-05-10T09:32:55;4.00;;;2.67;;
19727;SDS011;10015;52.530;13.390;2023-05-10T09:35:23;3.80;;;2.63;;
19727;SDS011;10015;52.530;13.390;2023-05-10T09:37:52;5.30;;;2.40;;
19727;SDS011;10015;52.530;13.390;2023-05-10T09:40:21;3.17;;;2.30;;
19727;SDS011;10015;52.530;13.390;2023-05-10T09:42:52;3.27;;;2.30;;
19727;SDS011;10015;52.530;13.390;2023-05-10T09:45:28;5.50;;;2.30;;
19727;SDS011;10015;52.530;13.390;2023-05-10T09:47:56;4.60;;;2.33;;
19727;SDS011;10015;52.530;13.390;2023-05-10T09:50:23;3.22;;;2.08;;
19727;SDS011;10015;52.530;13.390;2023-05-10T09:52:56;3.73;;;2.43;;
19727;SDS011;10015;52.530;13.390;2023-05-10T09:57:58;3.03;;;2.17;;
19727;SDS011;10015;52.530;13.390;2023-05-10T10:00:26;6.40;;;3.00;;
19727;SDS011;10015;52.530;13.390;2023-05-10T10:02:57;5.50;;;2.60;;
19727;SDS011;10015;52.530;13.390;2023-05-10T10:05:30;3.83;;;2.40;;
19727;SDS011;10015;52.530;13.390;2023-05-10T10:07:58;6.70;;;2.65;;
19727;SDS011;10015;52.530;13.390;2023-05-10T10:10:25;3.03;;;2.45;;
19727;SDS011;10015;52.530;13.390;2023-05-10T10:12:53;3.67;;;2.57;;
19727;SDS011;10015;52.530;13.390;2023-05-10T10:15:23;7.97;;;2.50;;
19727;SDS011;10015;52.530;13.390;2023-05-10T10:17:50;4.87;;;2.40;;
19727;SDS011;10015;52.530;13.390;2023-05-10T10:20:17;6.77;;;2.47;;
19727;SDS011;10015;52.530;13.390;2023-05-10T10:22:44;6.90;;;2.47;;
19727;SDS011;10015;52.530;13.390;2023-05-10T10:25:11;3.70;;;2.63;;
19727;SDS011;10015;52.530;13.390;2023-05-10T10:27:56;4.30;;;2.40;;
19727;SDS011;10015;52.530;13.390;2023-05-10T10:30:43;5.67;;;2.73;;
19727;SDS011;10015;52.530;13.390;2023-05-10T10:36:02;3.90;;;2.70;;
19727;SDS011;10015;52.530;13.390;2023-05-10T10:38:36;7.23;;;2.50;;
19727;SDS011;10015;52.530;13.390;2023-05-10T10:41:26;4.73;;;2.53;;
19727;SDS011;10015;52.530;13.390;2023-05-10T10:47:23;2.97;;;2.37;;
19727;SDS011;10015;52.530;13.390;2023-05-10T10:50:02;3.80;;;2.43;;
19727;SDS011;10015;52.530;13.390;2023-05-10T10:52:36;3.25;;;2.45;;
19727;SDS011;10015;52.530;13.390;2023-05-10T11:02:56;3.40;;;2.45;;
19727;SDS011;10015;52.530;13.390;2023-05-10T11:07:53;5.00;;;2.58;;
19727;SDS011;10015;52.530;13.390;2023-05-10T11:10:23;3.47;;;2.63;;
19727;SDS011;10015;52.530;13.390;2023-05-10T11:13:00;2.78;;;2.30;;
19727;SDS011;10015;52.530;13.390;2023-05-10T11:15:37;3.97;;;2.50;;
19727;SDS011;10015;52.530;13.390;2023-05-10T11:20:44;5.70;;;2.60;;
19727;SDS011;10015;52.530;13.390;2023-05-10T11:23:15;4.55;;;2.47;;
19727;SDS011;10015;52.530;13.390;2023-05-10T11:25:43;3.80;;;2.38;;
19727;SDS011;10015;52.530;13.390;2023-05-10T11:28:10;3.38;;;2.40;;
19727;SDS011;10015;52.530;13.390;2023-05-10T11:30:40;5.22;;;2.25;;
19727;SDS011;10015;52.530;13.390;2023-05-10T11:33:07;4.10;;;2.63;;
19727;SDS011;10015;52.530;13.390;2023-05-10T11:35:37;5.53;;;2.30;;
19727;SDS011;10015;52.530;13.390;2023-05-10T11:38:07;3.78;;;2.17;;
19727;SDS011;10015;52.530;13.390;2023-05-10T11:40:34;3.55;;;2.10;;
19727;SDS011;10015;52.530;13.390;2023-05-10T11:43:04;5.15;;;2.55;;
19727;SDS011;10015;52.530;13.390;2023-05-10T11:45:33;4.53;;;2.60;;
19727;SDS011;10015;52.530;13.390;2023-05-10T11:48:00;7.47;;;3.00;;
19727;SDS011;10015;52.530;13.390;2023-05-10T11:50:29;4.40;;;2.40;;
19727;SDS011;10015;52.530;13.390;2023-05-10T11:52:55;5.90;;;2.28;;
19727;SDS011;10015;52.530;13.390;2023-05-10T11:55:22;4.80;;;2.40;;
19727;SDS011;10015;52.530;13.390;2023-05-10T11:57:52;3.10;;;2.60;;
19727;SDS011;10015;52.530;13.390;2023-05-10T12:00:18;4.20;;;2.50;;
19727;SDS011;10015;52.530;13.390;2023-05-10T12:02:45;5.40;;;2.60;;
19727;SDS011;10015;52.530;13.390;2023-05-10T12:05:13;4.30;;;2.25;;
19727;SDS011;10015;52.530;13.390;2023-05-10T12:07:39;3.28;;;2.22;;
19727;SDS011;10015;52.530;13.390;2023-05-10T12:10:06;3.28;;;2.10;;
19727;SDS011;10015;52.530;13.390;2023-05-10T12:12:39;2.85;;;2.20;;
19727;SDS011;10015;52.530;13.390;2023-05-10T12:17:45;4.30;;;2.28;;
19727;SDS011;10015;52.530;13.390;2023-05-10T12:20:12;2.92;;;2.20;;
19727;SDS011;10015;52.530;13.390;2023-05-10T12:22:40;3.10;;;2.30;;
19727;SDS011;10015;52.530;13.390;2023-05-10T12:25:07;5.43;;;2.22;;
19727;SDS011;10015;52.530;13.390;2023-05-10T12:27:33;7.88;;;2.33;;
19727;SDS011;10015;52.530;13.390;2023-05-10T12:29:59;3.33;;;2.30;;
19727;SDS011;10015;52.530;13.390;2023-05-10T12:32:38;2.63;;;2.30;;
19727;SDS011;10015;52.530;13.390;2023-05-10T12:35:06;7.43;;;2.30;;
19727;SDS011;10015;52.530;13.390;2023-05-10T12:37:32;4.22;;;2.30;;
19727;SDS011;10015;52.530;13.390;2023-05-10T12:40:01;4.00;;;2.50;;
19727;SDS011;10015;52.530;13.390;2023-05-10T12:42:28;5.15;;;2.30;;
19727;SDS011;10015;52.530;13.390;2023-05-10T12:44:55;6.15;;;2.45;;
19727;SDS011;10015;52.530;13.390;2023-05-10T12:47:22;8.93;;;2.60;;
19727;SDS011;10015;52.530;13.390;2023-05-10T12:49:47;4.97;;;2.40;;
19727;SDS011;10015;52.530;13.390;2023-05-10T12:52:13;3.75;;;2.45;;
19727;SDS011;10015;52.530;13.390;2023-05-10T12:54:39;2.47;;;2.13;;
19727;SDS011;10015;52.530;13.390;2023-05-10T12:57:05;5.30;;;2.53;;
19727;SDS011;10015;52.530;13.390;2023-05-10T12:59:31;5.10;;;2.45;;
19727;SDS011;10015;52.530;13.390;2023-05-10T13:01:57;5.03;;;2.17;;
19727;SDS011;10015;52.530;13.390;2023-05-10T13:04:23;4.78;;;2.50;;
19727;SDS011;10015;52.530;13.390;2023-05-10T13:06:49;3.47;;;2.20;;
19727;SDS011;10015;52.530;13.390;2023-05-10T13:09:15;5.60;;;2.58;;
19727;SDS011;10015;52.530;13.390;2023-05-10T13:11:41;2.88;;;2.38;;
19727;SDS011;10015;52.530;13.390;2023-05-10T13:14:07;3.95;;;2.67;;
19727;SDS011;10015;52.530;13.390;2023-05-10T13:16:33;8.95;;;2.75;;
19727;SDS011;10015;52.530;13.390;2023-05-10T13:18:59;3.25;;;2.25;;
19727;SDS011;10015;52.530;13.390;2023-05-10T13:21:25;3.80;;;2.35;;
19727;SDS011;10015;52.530;13.390;2023-05-10T13:23:51;4.88;;;2.13;;
19727;SDS011;10015;52.530;13.390;2023-05-10T13:26:16;7.50;;;2.88;;
19727;SDS011;10015;52.530;13.390;2023-05-10T13:28:43;5.28;;;2.38;;
19727;SDS011;10015;52.530;13.390;2023-05-10T13:31:09;3.15;;;2.30;;
19727;SDS011;10015;52.530;13.390;2023-05-10T13:33:35;2.60;;;2.25;;
19727;SDS011;10015;52.530;13.390;2023-05-10T13:36:01;3.70;;;2.30;;
19727;SDS011;10015;52.530;13.390;2023-05-10T13:38:27;4.47;;;2.63;;
19727;SDS011;10015;52.530;13.390;2023-05-10T13:40:53;5.15;;;2.45;;
19727;SDS011;10015;52.530;13.390;2023-05-10T13:43:19;5.00;;;2.53;;
19727;SDS011;10015;52.530;13.390;2023-05-10T13:45:44;3.60;;;2.67;;
19727;SDS011;10015;52.530;13.390;2023-05-10T13:48:10;8.63;;;3.10;;
19727;SDS011;10015;52.530;13.390;2023-05-10T13:50:36;4.55;;;2.75;;
19727;SDS011;10015;52.530;13.390;2023-05-10T13:53:03;7.30;;;2.40;;
19727;SDS011;10015;52.530;13.390;2023-05-10T13:55:30;3.42;;;2.65;;
19727;SDS011;10015;52.530;13.390;2023-05-10T13:57:59;9.13;;;2.95;;
19727;SDS011;10015;52.530;13.390;2023-05-10T14:00:26;7.72;;;3.00;;
19727;SDS011;10015;52.530;13.390;2023-05-10T14:02:52;3.03;;;2.53;;
19727;SDS011;10015;52.530;13.390;2023-05-10T14:05:18;4.93;;;2.38;;
19727;SDS011;10015;52.530;13.390;2023-05-10T14:07:44;3.42;;;2.00;;
19727;SDS011;10015;52.530;13.390;2023-05-10T14:10:10;4.50;;;2.10;;
19727;SDS011;10015;52.530;13.390;2023-05-10T14:12:36;2.67;;;2.35;;
19727;SDS011;10015;52.530;13.390;2023-05-10T14:15:05;3.35;;;2.20;;
19727;SDS011;10015;52.530;13.390;2023-05-10T14:17:31;2.53;;;2.13;;
19727;SDS011;10015;52.530;13.390;2023-05-10T14:19:58;5.15;;;2.50;;
19727;SDS011;10015;52.530;13.390;2023-05-10T14:22:24;3.38;;;2.30;;
19727;SDS011;10015;52.530;13.390;2023-05-10T14:24:50;3.67;;;2.75;;
19727;SDS011;10015;52.530;13.390;2023-05-10T14:27:16;5.40;;;2.20;;
19727;SDS011;10015;52.530;13.390;2023-05-10T14:29:42;2.65;;;2.20;;
19727;SDS011;10015;52.530;13.390;2023-05-10T14:32:07;5.15;;;2.25;;
19727;SDS011;10015;52.530;13.390;2023-05-10T14:34:33;5.45;;;2.30;;
19727;SDS011;10015;52.530;13.390;2023-05-10T14:36:59;4.97;;;2.25;;
19727;SDS011;10015;52.530;13.390;2023-05-10T14:39:25;4.78;;;2.38;;
19727;SDS011;10015;52.530;13.390;2023-05-10T14:41:54;4.05;;;1.88;;
19727;SDS011;10015;52.530;13.390;2023-05-10T14:44:20;6.53;;;2.28;;
19727;SDS011;10015;52.530;13.390;2023-05-10T14:46:46;5.45;;;2.15;;
19727;SDS011;10015;52.530;13.390;2023-05-10T14:49:13;5.25;;;2.38;;
19727;SDS011;10015;52.530;13.390;2023-05-10T14:51:39;2.90;;;2.10;;
19727;SDS011;10015;52.530;13.390;2023-05-10T14:54:05;5.95;;;2.20;;
19727;SDS011;10015;52.530;13.390;2023-05-10T14:56:31;4.13;;;2.20;;
19727;SDS011;10015;52.530;13.390;2023-05-10T14:58:57;4.43;;;2.17;;
19727;SDS011;10015;52.530;13.390;2023-05-10T15:01:23;4.45;;;2.20;;
19727;SDS011;10015;52.530;13.390;2023-05-10T15:03:49;2.63;;;2.42;;
19727;SDS011;10015;52.530;13.390;2023-05-10T15:06:15;3.22;;;1.98;;
19727;SDS011;10015;52.530;13.390;2023-05-10T15:08:41;4.35;;;2.22;;
19727;SDS011;10015;52.530;13.390;2023-05-10T15:11:07;3.17;;;2.50;;
19727;SDS011;10015;52.530;13.390;2023-05-10T15:13:33;4.88;;;2.30;;